createdAt,value
2023-10-12T00:00:02.962Z,23.86
2023-10-12T00:03:45.817Z,23.75
2023-10-12T00:06:48.508Z,23.74
2023-10-12T00:10:11.145Z,23.65
2023-10-12T00:13:42.285Z,23.95
2023-10-12T00:17:10.657Z,24.14
2023-10-12T00:20:43.052Z,23.93
2023-10-12T00:23:57.159Z,23.88
2023-10-12T00:27:39.269Z,24.03
2023-10-12T00:30:59.724Z,24.15
2023-10-12T00:34:09.795Z,24.13
2023-10-12T00:37:51.686Z,24.29
2023-10-12T00:41:25.870Z,24.44
2023-10-12T00:44:48.766Z,24.18
2023-10-12T00:48:38.189Z,24.15
2023-10-12T00:52:35.736Z,24.14
2023-10-12T00:56:18.191Z,24.13
2023-10-12T00:59:59.352Z,24.14
2023-10-12T01:03:28.758Z,24.34
2023-10-12T01:07:02.923Z,24.38
2023-10-12T01:10:28.155Z,24.22
2023-10-12T01:14:20.466Z,24.09
2023-10-12T01:17:45.453Z,24.26
2023-10-12T01:21:04.107Z,24.08
2023-10-12T01:24:18.097Z,24.07
2023-10-12T01:27:29.459Z,24.09
2023-10-12T01:31:04.093Z,24.20
2023-10-12T01:34:24.746Z,24.18
2023-10-12T01:38:14.505Z,24.17
2023-10-12T01:42:03.704Z,24.39
2023-10-12T01:45:53.717Z,24.25
2023-10-12T01:49:20.438Z,24.47
2023-10-12T01:53:01.687Z,24.15
2023-10-12T01:56:42.302Z,24.31
2023-10-12T02:00:31.745Z,24.32
2023-10-12T02:04:21.400Z,24.24
2023-10-12T02:07:57.619Z,23.94
2023-10-12T02:11:39.835Z,23.80
2023-10-12T02:15:30.672Z,23.90
2023-10-12T02:19:22.548Z,23.88
2023-10-12T02:23:12.637Z,23.76
2023-10-12T02:27:11.234Z,23.60
2023-10-12T02:31:01.182Z,23.48
2023-10-12T02:35:11.153Z,23.87
2023-10-12T02:39:02.020Z,23.72
2023-10-12T02:43:00.535Z,23.64
2023-10-12T02:47:21.857Z,23.85
2023-10-12T02:51:21.323Z,23.64
2023-10-12T02:55:11.281Z,24.03
2023-10-12T02:59:03.321Z,24.09
2023-10-12T03:02:57.408Z,23.92
2023-10-12T03:06:51.188Z,23.57
2023-10-12T03:10:52.669Z,23.66
2023-10-12T03:14:34.293Z,23.69
2023-10-12T03:18:23.980Z,23.52
2023-10-12T03:22:14.426Z,23.68
2023-10-12T03:26:08.903Z,23.52
2023-10-12T03:29:58.471Z,23.66
2023-10-12T03:33:51.856Z,23.68
2023-10-12T03:37:44.011Z,23.38
2023-10-12T03:41:44.587Z,23.69
2023-10-12T03:45:50.334Z,23.47
2023-10-12T03:53:25.502Z,23.44
2023-10-12T03:57:15.909Z,23.40
2023-10-12T04:01:11.220Z,23.07
2023-10-12T04:04:45.059Z,23.01
2023-10-12T04:08:49.108Z,23.16
2023-10-12T04:12:39.735Z,23.42
2023-10-12T04:16:41.862Z,23.47
2023-10-12T04:20:51.565Z,23.28
2023-10-12T04:25:04.912Z,23.07
2023-10-12T04:29:19.972Z,23.60
2023-10-12T04:33:13.435Z,23.68
2023-10-12T04:37:05.640Z,23.60
2023-10-12T04:40:58.977Z,23.67
2023-10-12T04:44:51.605Z,23.47
2023-10-12T04:48:43.724Z,23.35
2023-10-12T04:52:35.654Z,23.35
2023-10-12T04:56:09.119Z,23.56
2023-10-12T05:00:03.928Z,23.58
2023-10-12T05:03:54.796Z,23.77
2023-10-12T05:07:48.297Z,23.64
2023-10-12T05:11:39.092Z,23.46
2023-10-12T05:15:29.996Z,23.05
2023-10-12T05:19:20.615Z,23.08
2023-10-12T05:23:12.697Z,23.25
2023-10-12T05:27:02.806Z,23.49
2023-10-12T05:31:00.548Z,23.25
2023-10-12T05:35:00.273Z,23.06
2023-10-12T05:38:58.407Z,23.20
2023-10-12T05:42:48.501Z,22.87
2023-10-12T05:46:55.600Z,23.30
2023-10-12T05:50:45.848Z,23.49
2023-10-12T05:54:41.752Z,22.96
2023-10-12T05:58:31.480Z,22.84
2023-10-12T06:02:24.269Z,22.67
2023-10-12T06:06:14.575Z,22.92
2023-10-12T06:10:05.629Z,22.85
2023-10-12T06:14:02.705Z,22.73
2023-10-12T06:17:53.559Z,22.68
2023-10-12T06:21:45.614Z,22.55
2023-10-12T06:26:05.914Z,22.39
2023-10-12T06:29:47.244Z,22.46
2023-10-12T06:33:37.777Z,22.11
2023-10-12T06:37:29.678Z,22.34
2023-10-12T06:42:01.568Z,22.33
2023-10-12T06:46:31.189Z,22.57
2023-10-12T06:50:52.178Z,22.80
2023-10-12T06:55:00.329Z,22.56
2023-10-12T06:59:42.257Z,22.43
2023-10-12T07:14:34.742Z,22.17
2023-10-12T07:18:28.096Z,21.82
2023-10-12T07:22:15.909Z,21.78
2023-10-12T07:25:44.986Z,21.71
2023-10-12T07:28:54.531Z,21.86
2023-10-12T07:32:18.416Z,22.35
2023-10-12T07:36:09.554Z,22.17
2023-10-12T07:40:00.757Z,21.71
2023-10-12T07:43:46.864Z,22.52
2023-10-12T07:47:25.377Z,22.37
2023-10-12T07:50:56.517Z,22.62
2023-10-12T07:54:46.893Z,22.74
2023-10-12T07:58:26.192Z,22.26
2023-10-12T08:02:09.571Z,22.29
2023-10-12T08:05:46.325Z,22.78
2023-10-12T08:09:45.763Z,22.36
2023-10-12T08:13:38.800Z,22.53
2023-10-12T08:17:23.625Z,22.29
2023-10-12T08:20:58.404Z,22.12
2023-10-12T08:24:42.083Z,22.32
2023-10-12T08:28:30.204Z,22.04
2023-10-12T08:32:07.977Z,22.07
2023-10-12T08:35:54.090Z,22.77
2023-10-12T08:39:47.189Z,22.92
2023-10-12T08:43:09.820Z,22.43
2023-10-12T08:47:15.949Z,22.79
2023-10-12T08:50:21.955Z,23.38
2023-10-12T08:54:09.981Z,23.36
2023-10-12T08:58:06.878Z,23.15
2023-10-12T09:01:44.199Z,22.62
2023-10-12T09:05:06.039Z,22.83
2023-10-12T09:09:18.605Z,22.68
2023-10-12T09:12:40.428Z,22.27
2023-10-12T09:16:30.122Z,22.24
2023-10-12T09:20:11.884Z,22.48
2023-10-12T09:23:41.670Z,22.59
2023-10-12T09:27:24.985Z,22.93
2023-10-12T09:31:15.512Z,23.53
2023-10-12T09:34:53.619Z,23.94
2023-10-12T09:38:25.713Z,23.20
2023-10-12T09:42:17.724Z,22.95
2023-10-12T09:45:40.705Z,23.30
2023-10-12T09:49:28.908Z,23.00
2023-10-12T09:53:09.510Z,22.92
2023-10-12T09:56:59.600Z,23.54
2023-10-12T10:00:31.520Z,23.97
2023-10-12T10:04:21.601Z,23.80
2023-10-12T10:08:13.605Z,23.30
2023-10-12T10:11:54.186Z,23.33
2023-10-12T10:15:36.372Z,23.61
2023-10-12T10:19:27.948Z,23.43
2023-10-12T10:22:42.845Z,23.47
2023-10-12T10:26:41.341Z,23.66
2023-10-12T10:31:00.148Z,23.88
2023-10-12T10:34:48.174Z,23.33
2023-10-12T10:38:40.330Z,22.70
2023-10-12T10:42:23.736Z,21.60
2023-10-12T10:46:18.218Z,21.41
2023-10-12T10:50:06.109Z,19.94
2023-10-12T10:53:57.069Z,20.47
2023-10-12T10:57:35.904Z,20.73
2023-10-12T11:01:07.625Z,21.44
2023-10-12T11:04:55.180Z,21.22
2023-10-12T11:08:48.095Z,21.45
2023-10-12T11:12:39.037Z,20.72
2023-10-12T11:15:56.374Z,21.12
2023-10-12T11:19:32.805Z,21.44
2023-10-12T11:23:21.949Z,20.92
2023-10-12T11:26:39.721Z,20.63
2023-10-12T11:30:29.255Z,20.89
2023-10-12T11:34:08.935Z,20.21
2023-10-12T11:37:51.499Z,19.29
2023-10-12T11:41:41.931Z,19.43
2023-10-12T11:45:36.311Z,19.26
2023-10-12T11:49:24.568Z,19.06
2023-10-12T11:53:12.836Z,18.94
2023-10-12T11:57:01.211Z,19.04
2023-10-12T12:00:29.317Z,19.49
2023-10-12T12:04:18.251Z,19.28
2023-10-12T12:07:48.796Z,19.27
2023-10-12T12:11:20.779Z,19.10
2023-10-12T12:14:54.234Z,19.12
2023-10-12T12:18:42.305Z,19.69
2023-10-12T12:22:36.778Z,19.85
2023-10-12T12:26:26.340Z,19.65
2023-10-12T12:34:02.395Z,19.29
2023-10-12T12:37:51.545Z,20.24
2023-10-12T12:41:39.545Z,19.76
2023-10-12T12:45:27.969Z,20.22
2023-10-12T12:49:16.005Z,19.95
2023-10-12T12:53:07.055Z,19.49
2023-10-12T12:56:36.140Z,20.26
2023-10-12T13:00:26.186Z,20.09
2023-10-12T13:04:13.809Z,19.72
2023-10-12T13:07:55.583Z,19.56
2023-10-12T13:11:37.169Z,19.82
2023-10-12T13:15:21.407Z,19.96
2023-10-12T13:19:09.629Z,20.10
2023-10-12T13:22:43.774Z,20.94
2023-10-12T13:26:16.933Z,21.58
2023-10-12T13:29:58.836Z,21.96
2023-10-12T13:33:46.807Z,22.17
2023-10-12T13:37:27.063Z,21.37
2023-10-12T13:41:17.201Z,21.51
2023-10-12T13:45:03.699Z,22.44
2023-10-12T13:48:51.573Z,22.54
2023-10-12T13:52:41.164Z,22.24
2023-10-12T13:56:28.841Z,22.53
2023-10-12T14:00:17.518Z,22.36
2023-10-12T14:04:00.547Z,22.14
2023-10-12T14:07:19.055Z,21.89
2023-10-12T14:11:07.418Z,22.14
2023-10-12T14:14:55.422Z,22.04
2023-10-12T14:18:43.125Z,21.82
2023-10-12T14:22:22.674Z,22.19
2023-10-12T14:26:10.755Z,22.21
2023-10-12T14:29:59.576Z,22.44
2023-10-12T14:33:51.519Z,22.19
2023-10-12T14:37:41.326Z,22.24
2023-10-12T14:41:28.345Z,21.99
2023-10-12T14:45:07.946Z,21.71
2023-10-12T14:48:56.206Z,21.30
2023-10-12T14:52:36.381Z,21.41
2023-10-12T14:56:25.433Z,21.09
2023-10-12T15:00:14.583Z,20.96
2023-10-12T15:04:03.771Z,21.43
2023-10-12T15:07:52.409Z,21.42
2023-10-12T15:11:42.026Z,21.14
2023-10-12T15:15:10.963Z,21.52
2023-10-12T15:19:05.147Z,21.81
2023-10-12T15:22:53.155Z,21.93
2023-10-12T15:26:38.388Z,22.13
2023-10-12T15:30:26.324Z,21.45
2023-10-12T15:34:15.806Z,21.91
2023-10-12T15:37:43.600Z,21.55
2023-10-12T15:41:15.564Z,21.51
2023-10-12T15:45:03.991Z,21.99
2023-10-12T15:48:52.050Z,22.10
2023-10-12T15:52:40.292Z,22.29
2023-10-12T15:56:28.351Z,21.52
2023-10-12T16:00:10.885Z,21.73
2023-10-12T16:04:03.634Z,22.18
2023-10-12T16:07:35.899Z,21.85
2023-10-12T16:11:26.286Z,21.71
2023-10-12T16:15:04.606Z,21.67
2023-10-12T16:18:46.479Z,21.55
2023-10-12T16:22:36.181Z,21.41
2023-10-12T16:26:10.192Z,20.73
2023-10-12T16:30:00.469Z,20.64
2023-10-12T16:33:48.637Z,20.62
2023-10-12T16:37:30.971Z,21.00
2023-10-12T16:41:19.344Z,21.50
2023-10-12T16:45:08.007Z,21.64
2023-10-12T16:48:57.246Z,21.30
2023-10-12T16:52:46.010Z,20.87
2023-10-12T16:56:28.610Z,20.83
2023-10-12T17:00:17.771Z,20.98
2023-10-12T17:03:58.513Z,21.36
2023-10-12T17:07:47.306Z,21.19
2023-10-12T17:11:25.577Z,20.94
2023-10-12T17:15:14.928Z,20.58
2023-10-12T17:19:03.332Z,20.59
2023-10-12T17:23:15.582Z,20.98
2023-10-12T17:27:04.300Z,21.10
2023-10-12T17:30:52.933Z,21.02
2023-10-12T17:34:42.633Z,20.72
2023-10-12T17:38:30.973Z,20.11
2023-10-12T17:41:44.739Z,20.23
2023-10-12T17:45:33.286Z,20.31
2023-10-12T17:49:21.335Z,20.83
2023-10-12T17:53:09.718Z,20.82
2023-10-12T17:56:58.149Z,20.85
2023-10-12T18:00:46.970Z,20.54
2023-10-12T18:04:35.025Z,20.77
2023-10-12T18:08:10.728Z,20.87
2023-10-12T18:12:01.574Z,20.61
2023-10-12T18:15:42.941Z,20.42
2023-10-12T18:19:30.909Z,20.52
2023-10-12T18:23:11.041Z,20.30
2023-10-12T18:26:35.289Z,20.37
2023-10-12T18:30:17.406Z,20.30
2023-10-12T18:34:17.315Z,20.23
2023-10-12T18:37:36.832Z,20.08
2023-10-12T18:41:13.605Z,19.40
2023-10-12T18:44:40.308Z,18.99
2023-10-12T18:47:38.011Z,19.20
2023-10-12T18:50:55.968Z,19.16
2023-10-12T18:54:43.627Z,18.96
2023-10-12T18:58:01.242Z,18.85
2023-10-12T19:01:34.570Z,18.93
2023-10-12T19:05:18.376Z,18.48
2023-10-12T19:08:28.699Z,18.73
2023-10-12T19:11:41.937Z,18.88
2023-10-12T19:14:49.369Z,18.71
2023-10-12T19:18:23.578Z,18.64
2023-10-12T19:21:18.751Z,18.46
2023-10-12T19:24:42.648Z,18.49
2023-10-12T19:28:18.129Z,18.35
2023-10-12T19:32:06.163Z,18.32
2023-10-12T19:35:22.336Z,18.35
2023-10-12T19:38:42.979Z,18.14
2023-10-12T19:42:00.596Z,18.27
2023-10-12T19:45:19.604Z,18.28
2023-10-12T19:48:50.043Z,18.01
2023-10-12T19:52:38.109Z,17.85
2023-10-12T19:56:06.205Z,17.71
2023-10-12T19:58:59.729Z,17.54
2023-10-12T20:02:28.866Z,17.39
2023-10-12T20:06:09.229Z,17.48
2023-10-12T20:09:49.407Z,17.79
2023-10-12T20:13:42.742Z,17.84
2023-10-12T20:17:29.811Z,17.94
2023-10-12T20:21:24.203Z,17.83
2023-10-12T20:25:27.300Z,17.58
2023-10-12T20:29:04.555Z,17.35
2023-10-12T20:32:53.028Z,17.48
2023-10-12T20:36:41.746Z,17.70
2023-10-12T20:40:01.398Z,17.75
2023-10-12T20:43:27.035Z,17.88
2023-10-12T20:47:14.847Z,17.98
2023-10-12T20:51:03.525Z,17.91
2023-10-12T20:54:51.577Z,18.05
2023-10-12T20:58:13.595Z,18.15
2023-10-12T21:05:35.080Z,18.28
2023-10-12T21:09:22.983Z,18.38
2023-10-12T21:13:04.123Z,18.36
2023-10-12T21:16:52.653Z,17.99
2023-10-12T21:20:34.624Z,17.99
2023-10-12T21:24:28.513Z,17.96
2023-10-12T21:28:17.454Z,17.81
2023-10-12T21:32:10.074Z,17.75
2023-10-12T21:35:27.009Z,17.93
2023-10-12T21:39:03.457Z,18.20
2023-10-12T21:42:38.746Z,18.37
2023-10-12T21:46:10.540Z,18.62
2023-10-12T21:49:35.027Z,18.64
2023-10-12T21:53:13.072Z,18.81
2023-10-12T21:56:57.740Z,18.59
2023-10-12T22:00:27.852Z,18.58
2023-10-12T22:04:13.659Z,18.07
2023-10-12T22:07:48.197Z,18.00
2023-10-12T22:11:26.201Z,18.50
2023-10-12T22:15:23.399Z,18.72
2023-10-12T22:18:46.913Z,18.69
2023-10-12T22:22:20.012Z,18.67
2023-10-12T22:25:38.377Z,18.81
2023-10-12T22:29:30.333Z,18.89
2023-10-12T22:32:58.689Z,18.94
2023-10-12T22:36:47.397Z,18.54
2023-10-12T22:40:31.048Z,18.94
2023-10-12T22:44:19.404Z,19.23
2023-10-12T22:47:44.636Z,19.12
2023-10-12T22:51:32.752Z,18.27
2023-10-12T22:55:20.870Z,18.70
2023-10-12T22:59:01.093Z,19.12
2023-10-12T23:02:43.069Z,19.27
2023-10-12T23:06:13.920Z,19.43
2023-10-12T23:10:01.522Z,19.58
2023-10-12T23:13:47.593Z,19.09
2023-10-12T23:17:35.710Z,19.14
2023-10-12T23:21:24.362Z,19.35
2023-10-12T23:25:02.729Z,19.22
2023-10-12T23:28:51.059Z,18.82
2023-10-12T23:36:50.801Z,18.56
2023-10-12T23:39:29.745Z,18.85
2023-10-12T23:42:08.768Z,18.87
2023-10-12T23:45:08.553Z,19.09
2023-10-12T23:47:40.307Z,19.54
2023-10-12T23:51:02.817Z,19.57
2023-10-12T23:53:56.181Z,19.61
2023-10-12T23:57:12.166Z,19.67
2023-10-12T23:59:45.968Z,19.66
